Time;durP1;ratioP1;P1;durP2;ratioP2;P2;SDS_P1;SDS_P2;PMS_P1;PMS_P2;Temp;Humidity;BMP_temperature;BMP_pressure;BME280_temperature;BME280_humidity;BME280_pressure;Samples;Min_cycle;Max_cycle;Signal;HPM_P1;HPM_P2
2022/12/05 00:01:22;;;;;;;56.37;30.00;;;;;;;2.28;98.66;100913.48;1698606;84;21982;-76
2022/12/05 00:03:52;;;;;;;62.83;31.60;;;;;;;2.28;98.67;100913.48;1698766;84;21046;-77
2022/12/05 00:06:20;;;;;;;61.18;30.62;;;;;;;2.28;98.75;100909.60;1679040;84;21069;-76
2022/12/05 00:08:48;;;;;;;59.77;31.17;;;;;;;2.28;98.74;100906.16;1697935;84;21045;-76
2022/12/05 00:11:22;;;;;;;61.60;32.30;;;;;;;2.29;98.84;100906.58;1698491;84;21033;-76
2022/12/05 00:13:51;;;;;;;62.73;30.70;;;;;;;2.30;98.86;100900.54;1698963;84;21117;-76
2022/12/05 00:16:22;;;;;;;61.70;31.33;;;;;;;2.31;98.84;100908.76;1698541;84;21037;-77
2022/12/05 00:18:50;;;;;;;63.33;31.80;;;;;;;2.32;98.84;100908.75;1698873;84;21029;-77
2022/12/05 00:21:24;;;;;;;63.77;31.60;;;;;;;2.31;98.82;100905.73;1698714;84;21062;-76
2022/12/05 00:23:54;;;;;;;63.20;31.20;;;;;;;2.31;98.77;100910.05;1697898;84;21282;-78
2022/12/05 00:26:21;;;;;;;60.13;31.57;;;;;;;2.31;98.87;100909.61;1698382;84;21198;-76
2022/12/05 00:28:49;;;;;;;62.03;31.30;;;;;;;2.32;98.92;100915.22;1687836;84;21071;-76
2022/12/05 00:31:20;;;;;;;61.60;30.63;;;;;;;2.33;98.95;100914.38;1687538;84;21042;-80
2022/12/05 00:33:48;;;;;;;60.77;31.53;;;;;;;2.34;98.96;100916.09;1687645;84;21511;-77
2022/12/05 00:36:29;;;;;;;60.83;30.90;;;;;;;2.34;98.87;100913.94;1687642;85;21026;-76
2022/12/05 00:38:57;;;;;;;;;;;;;;;2.33;98.91;100919.55;1690569;84;21472;-76
2022/12/05 00:41:27;;;;;;;63.70;32.07;;;;;;;2.33;99.01;100914.78;1687633;85;20174;-76
2022/12/05 00:43:57;;;;;;;62.73;30.33;;;;;;;2.34;99.01;100919.12;1688186;85;21042;-76
2022/12/05 00:46:28;;;;;;;54.70;29.57;;;;;;;2.34;98.99;100922.56;1687785;85;21495;-76
2022/12/05 00:48:57;;;;;;;63.90;32.03;;;;;;;2.34;99.11;100917.83;1687841;84;21003;-77
2022/12/05 00:51:31;;;;;;;62.27;31.03;;;;;;;2.34;99.09;100919.98;1687056;85;22041;-76
2022/12/05 00:54:01;;;;;;;60.00;30.90;;;;;;;2.34;98.94;100920.41;1687885;85;21045;-80
2022/12/05 00:56:30;;;;;;;65.00;29.60;;;;;;;2.35;99.10;100927.30;1687072;84;21531;-76
2022/12/05 00:58:59;;;;;;;59.60;29.40;;;;;;;2.35;99.07;100924.72;1687543;84;21022;-76
2022/12/05 01:01:31;;;;;;;56.53;28.33;;;;;;;2.36;99.03;100927.76;1687632;85;21089;-78
2022/12/05 01:04:03;;;;;;;63.33;30.27;;;;;;;2.35;99.11;100930.75;1687829;85;21070;-77
2022/12/05 01:06:31;;;;;;;62.00;29.10;;;;;;;2.37;99.04;100929.47;1687593;84;21519;-78
2022/12/05 01:08:58;;;;;;;52.57;27.13;;;;;;;2.36;99.00;100933.79;1687977;85;21018;-77
2022/12/05 01:11:26;;;;;;;52.07;27.97;;;;;;;2.36;99.16;100935.08;1687732;85;21014;-77
2022/12/05 01:13:54;;;;;;;59.10;29.67;;;;;;;2.38;99.20;100930.79;1687906;84;21065;-77
2022/12/05 01:16:26;;;;;;;55.10;28.07;;;;;;;2.40;99.12;100934.66;1687636;84;21140;-76
2022/12/05 01:18:54;;;;;;;55.90;28.37;;;;;;;2.40;99.11;100937.25;1686784;84;21014;-77
2022/12/05 01:21:21;;;;;;;54.93;29.03;;;;;;;2.40;99.14;100933.37;1687613;85;21583;-77
2022/12/05 01:23:48;;;;;;;55.77;27.60;;;;;;;2.41;99.25;100926.03;1687941;84;21042;-76
2022/12/05 01:26:19;;;;;;;58.53;29.80;;;;;;;2.43;99.27;100924.32;1673865;84;21038;-76
2022/12/05 01:28:46;;;;;;;;;;;;;;;2.43;99.18;100923.03;1666149;85;21091;-77
2022/12/05 01:31:21;;;;;;;60.00;29.97;;;;;;;2.43;99.19;100913.54;1668670;85;20200;-77
2022/12/05 01:33:49;;;;;;;62.30;30.93;;;;;;;2.41;99.24;100906.22;1669468;85;21032;-76
2022/12/05 01:36:17;;;;;;;59.47;31.13;;;;;;;2.42;99.24;100913.11;1669447;85;21046;-77
2022/12/05 01:38:44;;;;;;;59.20;29.33;;;;;;;2.40;99.22;100907.50;1668254;85;21523;-77
2022/12/05 01:41:16;;;;;;;64.10;30.40;;;;;;;2.40;99.25;100904.91;1667335;86;21557;-77
2022/12/05 01:44:03;;;;;;;65.60;32.43;;;;;;;2.39;99.19;100908.36;1656277;85;20932;-77
2022/12/05 01:46:36;;;;;;;62.00;30.87;;;;;;;2.39;99.32;100907.07;1665446;85;21055;-77
2022/12/05 01:49:11;;;;;;;65.30;33.20;;;;;;;2.39;99.41;100904.48;1655994;85;21106;-77
2022/12/05 01:51:42;;;;;;;60.00;31.63;;;;;;;2.39;99.35;100909.22;1628634;88;21122;-77
2022/12/05 01:54:09;;;;;;;;;;;;;;;2.39;99.43;100913.54;1666963;86;21269;-77
2022/12/05 01:56:38;;;;;;;64.43;31.20;;;;;;;2.38;99.50;100903.62;1627860;88;20311;-77
2022/12/05 01:59:08;;;;;;;62.60;30.57;;;;;;;2.38;99.53;100904.03;1646266;87;20948;-77
2022/12/05 02:01:35;;;;;;;63.58;30.72;;;;;;;2.38;99.60;100901.04;1662732;85;21067;-77
2022/12/05 02:04:02;;;;;;;64.77;30.40;;;;;;;2.39;99.51;100909.22;1662377;85;21059;-77
2022/12/05 02:06:31;;;;;;;62.13;31.33;;;;;;;2.39;99.51;100910.52;1656003;86;21565;-77
2022/12/05 02:08:58;;;;;;;56.00;28.33;;;;;;;2.39;99.54;100900.61;1655726;86;21569;-77
2022/12/05 02:11:28;;;;;;;58.73;30.63;;;;;;;2.41;99.57;100905.33;1655964;86;21594;-78
2022/12/05 02:14:35;;;;;;;63.83;31.62;;;;;;;2.41;99.60;100903.64;1656073;86;24572;-77
2022/12/05 02:17:23;;;;;;;58.93;28.77;;;;;;;2.42;99.61;100906.65;1655779;86;21032;-77
2022/12/05 02:20:30;;;;;;;65.63;30.97;;;;;;;2.42;99.72;100904.06;1655771;86;21550;-77
2022/12/05 02:23:35;;;;;;;62.83;32.57;;;;;;;2.45;99.71;100910.54;1656043;86;21067;-78
2022/12/05 02:26:40;;;;;;;63.63;31.43;;;;;;;2.42;99.40;100919.59;1655984;86;21071;-78
2022/12/05 02:29:20;;;;;;;61.77;30.60;;;;;;;2.37;99.39;100920.42;1620955;88;21143;-79
2022/12/05 02:32:11;;;;;;;61.97;29.70;;;;;;;2.34;99.57;100913.50;1682829;83;21290;-80
2022/12/05 02:34:56;;;;;;;59.90;29.13;;;;;;;2.34;99.74;100914.80;1682300;85;21479;-80
2022/12/05 02:37:36;;;;;;;60.47;30.73;;;;;;;2.32;99.61;100908.75;1682956;85;21025;-80
2022/12/05 02:40:11;;;;;;;60.67;29.75;;;;;;;2.29;99.60;100902.27;1682526;83;21033;-81
2022/12/05 02:42:52;;;;;;;53.73;28.10;;;;;;;2.26;99.51;100902.26;1682971;85;21048;-80
2022/12/05 02:45:22;;;;;;;56.13;28.77;;;;;;;2.21;99.40;100903.52;1655774;85;21028;-79
2022/12/05 02:47:53;;;;;;;56.25;28.05;;;;;;;2.18;99.38;100905.23;1656837;86;21130;-81
2022/12/05 02:50:24;;;;;;;56.60;29.67;;;;;;;2.16;99.58;100897.88;1656296;85;21041;-81
2022/12/05 02:52:55;;;;;;;55.03;29.07;;;;;;;2.15;99.71;100897.46;1656364;85;21030;-80
2022/12/05 02:55:22;;;;;;;;;;;;;;;2.14;99.69;100902.20;1659166;85;21026;-79
2022/12/05 02:57:53;;;;;;;56.73;29.50;;;;;;;2.12;99.73;100897.02;1656449;85;20529;-79
2022/12/05 03:00:21;;;;;;;55.70;28.97;;;;;;;2.09;99.71;100890.53;1656748;85;21907;-80
2022/12/05 03:02:53;;;;;;;56.73;28.87;;;;;;;2.08;99.84;100891.80;1656424;85;21042;-79
2022/12/05 03:05:45;;;;;;;57.73;28.87;;;;;;;2.06;99.84;100886.64;1656576;86;21512;-78
2022/12/05 03:08:17;;;;;;;56.33;28.80;;;;;;;2.05;99.94;100884.92;1641099;86;21539;-79
2022/12/05 03:10:46;;;;;;;58.87;29.30;;;;;;;2.05;100.00;100881.05;1656609;85;21039;-80
2022/12/05 03:13:21;;;;;;;61.80;31.70;;;;;;;2.06;100.00;100880.61;1656370;85;21560;-79
2022/12/05 03:15:54;;;;;;;59.20;31.60;;;;;;;2.06;100.00;100876.30;1656800;86;21035;-79
2022/12/05 03:18:31;;;;;;;62.73;30.83;;;;;;;2.04;100.00;100874.56;1682869;85;21006;-79
2022/12/05 03:21:21;;;;;;;57.10;29.80;;;;;;;2.06;100.00;100882.77;1683065;83;21092;-80
2022/12/05 03:23:52;;;;;;;61.37;30.52;;;;;;;2.08;100.00;100880.17;1682879;83;21041;-81
2022/12/05 03:26:37;;;;;;;61.77;31.53;;;;;;;2.08;100.00;100877.58;1682709;83;22110;-80
2022/12/05 03:29:36;;;;;;;58.40;30.77;;;;;;;2.08;100.00;100872.41;1683610;83;21016;-80
2022/12/05 03:32:16;;;;;;;59.00;30.13;;;;;;;2.08;100.00;100877.58;1669205;83;21606;-80
2022/12/05 03:35:00;;;;;;;55.57;28.80;;;;;;;2.07;100.00;100871.55;1640200;86;21024;-80
2022/12/05 03:37:53;;;;;;;58.60;30.33;;;;;;;2.07;100.00;100870.70;1684483;85;21036;-81
2022/12/05 03:40:51;;;;;;;60.43;29.77;;;;;;;2.07;100.00;100872.84;1684846;83;21152;-80
2022/12/05 03:43:35;;;;;;;59.97;29.83;;;;;;;2.07;100.00;100865.52;1684752;83;21017;-80
2022/12/05 03:46:08;;;;;;;59.53;30.03;;;;;;;2.06;100.00;100865.09;1684857;83;21446;-79
2022/12/05 03:48:58;;;;;;;62.77;29.70;;;;;;;2.06;100.00;100863.80;1661347;85;21022;-81
2022/12/05 03:51:28;;;;;;;;;;;;;;;2.05;100.00;100864.64;1619030;85;21040;-80
2022/12/05 03:54:09;;;;;;;64.00;31.33;;;;;;;2.07;100.00;100861.64;1684526;83;21325;-80
2022/12/05 03:56:44;;;;;;;58.37;29.93;;;;;;;2.06;100.00;100869.84;1684366;83;21029;-81
2022/12/05 03:59:35;;;;;;;58.93;29.97;;;;;;;2.06;100.00;100870.27;1684671;83;21088;-81
2022/12/05 04:02:06;;;;;;;54.18;29.98;;;;;;;2.04;100.00;100862.92;1684862;83;21025;-81
2022/12/05 04:04:54;;;;;;;61.67;30.00;;;;;;;2.03;100.00;100862.06;1684525;83;21515;-81
2022/12/05 04:07:23;;;;;;;58.40;30.40;;;;;;;2.03;100.00;100862.50;1683606;83;21136;-81
2022/12/05 04:09:57;;;;;;;57.10;29.60;;;;;;;2.04;100.00;100859.91;1684696;83;21375;-81
2022/12/05 04:12:29;;;;;;;54.20;28.93;;;;;;;2.04;100.00;100858.61;1685077;83;21040;-81
2022/12/05 04:15:05;;;;;;;57.10;29.97;;;;;;;2.05;100.00;100857.77;1684806;83;21521;-81
2022/12/05 04:17:46;;;;;;;60.63;29.43;;;;;;;2.06;100.00;100852.17;1684753;83;21565;-81
2022/12/05 04:23:04;;;;;;;;;;;;;;;2.06;100.00;100865.09;1687543;83;21093;-80
2022/12/05 04:25:50;;;;;;;56.77;29.70;;;;;;;2.06;100.00;100856.05;1684735;83;20152;-80
2022/12/05 04:28:38;;;;;;;57.07;29.37;;;;;;;2.07;100.00;100858.62;1682305;83;20962;-81
2022/12/05 04:31:19;;;;;;;51.00;27.80;;;;;;;2.08;100.00;100847.84;1672889;84;21499;-80
2022/12/05 04:33:54;;;;;;;58.03;28.27;;;;;;;2.07;100.00;100857.33;1672969;84;21177;-81
2022/12/05 04:36:42;;;;;;;55.77;28.47;;;;;;;2.08;100.00;100860.37;1677165;84;21276;-81
2022/12/05 04:39:20;;;;;;;54.70;27.67;;;;;;;2.08;100.00;100855.60;1676525;84;21020;-81
2022/12/05 04:41:55;;;;;;;53.90;28.63;;;;;;;2.08;100.00;100855.60;1673512;84;21022;-81
2022/12/05 04:44:26;;;;;;;50.77;27.30;;;;;;;2.07;100.00;100854.75;1677516;84;21007;-81
2022/12/05 04:46:55;;;;;;;54.13;27.40;;;;;;;2.08;100.00;100849.14;1657727;84;21562;-80
2022/12/05 04:49:26;;;;;;;57.93;29.23;;;;;;;2.10;100.00;100855.19;1677338;84;21003;-80
2022/12/05 04:51:57;;;;;;;52.30;26.57;;;;;;;2.10;100.00;100856.48;1677176;84;21582;-80
2022/12/05 04:54:29;;;;;;;54.63;27.63;;;;;;;2.10;100.00;100854.75;1677190;84;21036;-81
2022/12/05 04:57:20;;;;;;;48.27;26.57;;;;;;;2.09;100.00;100862.09;1677226;84;21051;-81
2022/12/05 04:59:47;;;;;;;49.98;25.72;;;;;;;2.10;100.00;100872.00;1674481;85;21476;-80
2022/12/05 05:02:19;;;;;;;54.70;26.33;;;;;;;2.09;100.00;100869.84;1677154;84;21521;-80
2022/12/05 05:04:51;;;;;;;52.43;26.67;;;;;;;2.11;100.00;100864.70;1677625;84;20999;-80
2022/12/05 05:07:18;;;;;;;54.80;27.63;;;;;;;2.10;100.00;100868.12;1677098;84;21038;-81
2022/12/05 05:09:45;;;;;;;51.43;27.23;;;;;;;2.11;100.00;100875.90;1677423;84;21533;-81
2022/12/05 05:12:13;;;;;;;49.33;26.93;;;;;;;2.13;100.00;100869.42;1677135;85;21122;-81
2022/12/05 05:14:40;;;;;;;52.77;28.10;;;;;;;2.11;100.00;100866.84;1677248;85;20946;-81
2022/12/05 05:17:07;;;;;;;47.67;25.13;;;;;;;2.11;100.00;100872.45;1677075;84;21011;-81
2022/12/05 05:19:34;;;;;;;51.93;26.17;;;;;;;2.11;100.00;100875.90;1677438;85;21556;-80
2022/12/05 05:22:01;;;;;;;50.20;26.90;;;;;;;2.13;100.00;100875.89;1677175;85;21071;-79
2022/12/05 05:24:28;;;;;;;53.13;26.60;;;;;;;2.11;100.00;100877.20;1677288;85;21143;-81
2022/12/05 05:26:55;;;;;;;52.00;26.83;;;;;;;2.13;100.00;100878.48;1677136;84;20991;-81
2022/12/05 05:29:22;;;;;;;48.03;26.37;;;;;;;2.13;100.00;100878.04;1680933;84;21050;-80
2022/12/05 05:31:49;;;;;;;52.47;26.90;;;;;;;2.11;100.00;100878.48;1684494;85;21009;-81
2022/12/05 05:34:16;;;;;;;50.90;27.03;;;;;;;2.11;100.00;100875.90;1684965;84;21046;-81
2022/12/05 05:36:43;;;;;;;53.10;26.80;;;;;;;2.11;100.00;100873.31;1684522;85;21138;-79
2022/12/05 05:39:14;;;;;;;49.87;26.40;;;;;;;2.12;100.00;100880.20;1684406;84;21027;-81
2022/12/05 05:41:42;;;;;;;47.67;24.77;;;;;;;2.12;100.00;100877.62;1684473;84;21014;-81
2022/12/05 05:44:09;;;;;;;57.40;26.87;;;;;;;2.12;100.00;100878.91;1684624;84;21011;-81
2022/12/05 05:46:37;;;;;;;50.73;26.20;;;;;;;2.12;100.00;100874.17;1684428;85;21086;-81
2022/12/05 05:49:05;;;;;;;49.83;25.80;;;;;;;2.12;100.00;100881.93;1684417;84;21108;-81
2022/12/05 05:51:32;;;;;;;48.70;27.17;;;;;;;2.13;100.00;100884.51;1684394;84;21556;-81
2022/12/05 05:53:59;;;;;;;45.50;24.73;;;;;;;2.14;100.00;100885.40;1684758;84;21046;-81
2022/12/05 05:56:27;;;;;;;46.53;25.70;;;;;;;2.13;100.00;100884.51;1684597;84;21034;-81
2022/12/05 05:58:59;;;;;;;46.73;26.40;;;;;;;2.14;100.00;100887.55;1684889;84;21042;-81
2022/12/05 06:01:27;;;;;;;51.83;26.57;;;;;;;2.13;100.00;100887.09;1684587;84;21151;-80
2022/12/05 06:03:54;;;;;;;49.80;26.60;;;;;;;2.14;100.00;100887.98;1684776;83;21035;-81
2022/12/05 06:06:22;;;;;;;45.60;26.10;;;;;;;2.13;100.00;100887.09;1684656;85;21031;-80
2022/12/05 06:08:50;;;;;;;46.57;26.33;;;;;;;2.13;100.00;100888.82;1684655;84;21011;-80
2022/12/05 06:11:20;;;;;;;47.40;26.47;;;;;;;2.16;100.00;100887.54;1684829;84;20987;-82
2022/12/05 06:13:48;;;;;;;50.73;27.07;;;;;;;2.18;100.00;100884.11;1684960;84;21973;-82
2022/12/05 06:16:17;;;;;;;45.87;25.33;;;;;;;2.19;100.00;100884.56;1684567;84;21041;-81
2022/12/05 06:18:44;;;;;;;47.07;25.37;;;;;;;2.18;100.00;100878.94;1684857;85;20999;-79
2022/12/05 06:21:12;;;;;;;53.63;27.07;;;;;;;2.18;100.00;100876.34;1684794;84;21098;-80
2022/12/05 06:23:39;;;;;;;48.13;25.97;;;;;;;2.19;100.00;100878.50;1684673;85;21280;-80
2022/12/05 06:26:13;;;;;;;49.03;25.47;;;;;;;2.19;100.00;100882.38;1684869;83;22245;-80
2022/12/05 06:28:40;;;;;;;47.97;25.90;;;;;;;2.19;100.00;100882.38;1685313;83;21062;-81
2022/12/05 06:31:17;;;;;;;46.47;24.63;;;;;;;2.19;100.00;100879.80;1693107;84;21034;-80
2022/12/05 06:33:45;;;;;;;51.07;26.20;;;;;;;2.19;100.00;100875.91;1693224;84;21011;-81
2022/12/05 06:36:16;;;;;;;47.13;25.43;;;;;;;2.22;100.00;100880.70;1692939;84;21642;-81
2022/12/05 06:38:43;;;;;;;45.50;25.10;;;;;;;2.22;100.00;100879.84;1693039;84;21151;-80
2022/12/05 06:41:18;;;;;;;46.97;25.83;;;;;;;2.24;100.00;100876.80;1692898;84;21015;-80
2022/12/05 06:43:45;;;;;;;45.43;24.87;;;;;;;2.25;100.00;100880.28;1693021;84;20932;-80
2022/12/05 06:46:15;;;;;;;42.37;23.47;;;;;;;2.24;100.00;100885.86;1692955;84;21042;-80
2022/12/05 06:48:42;;;;;;;45.23;24.73;;;;;;;2.22;100.00;100879.41;1693290;84;21577;-81
2022/12/05 06:51:11;;;;;;;48.63;25.07;;;;;;;2.23;100.00;100878.53;1693052;84;21911;-81
2022/12/05 06:53:38;;;;;;;48.17;24.67;;;;;;;2.21;100.00;100875.06;1692809;84;21560;-81
2022/12/05 06:56:12;;;;;;;44.47;23.50;;;;;;;2.21;100.00;100867.30;1693210;84;21034;-80
2022/12/05 06:58:43;;;;;;;43.97;24.33;;;;;;;2.22;100.00;100872.08;1673816;84;21038;-80
2022/12/05 07:03:58;;;;;;;47.77;25.10;;;;;;;2.27;100.00;100871.64;1667279;84;21238;-74
2022/12/05 07:06:26;;;;;;;45.57;23.03;;;;;;;2.26;100.00;100869.92;1690214;84;20962;-76
2022/12/05 07:08:53;;;;;;;45.83;23.90;;;;;;;2.29;100.00;100866.48;1678850;84;21651;-76
2022/12/05 07:11:20;;;;;;;49.50;24.93;;;;;;;2.31;100.00;100879.87;1690778;84;21038;-75
2022/12/05 07:13:47;;;;;;;44.67;24.10;;;;;;;2.28;99.89;100878.56;1690264;84;21719;-76
2022/12/05 07:16:14;;;;;;;47.37;23.77;;;;;;;2.28;99.98;100881.16;1690617;84;21091;-72
2022/12/05 07:18:41;;;;;;;47.80;24.70;;;;;;;2.28;99.93;100877.70;1688771;84;21031;-77
2022/12/05 07:21:12;;;;;;;43.50;23.67;;;;;;;2.28;100.00;100869.52;1671655;84;21067;-77
2022/12/05 07:23:41;;;;;;;45.43;25.13;;;;;;;2.30;100.00;100870.39;1667483;84;21636;-78
2022/12/05 07:26:11;;;;;;;45.17;23.97;;;;;;;2.32;100.00;100880.73;1667707;84;21066;-74
2022/12/05 07:28:38;;;;;;;50.30;25.12;;;;;;;2.31;99.97;100886.77;1666131;84;21154;-74
2022/12/05 07:31:11;;;;;;;45.03;25.70;;;;;;;2.32;99.95;100893.23;1672035;83;21503;-74
2022/12/05 07:33:38;;;;;;;46.63;25.30;;;;;;;2.33;99.86;100888.91;1676590;83;21519;-72
2022/12/05 07:36:15;;;;;;;44.33;25.20;;;;;;;2.33;99.68;100892.39;1668020;85;21062;-73
2022/12/05 07:38:44;;;;;;;42.47;23.13;;;;;;;2.32;99.74;100891.94;1655037;85;21102;-74
2022/12/05 07:41:25;;;;;;;44.80;24.43;;;;;;;2.32;99.71;100890.64;1654455;85;21433;-73
2022/12/05 07:43:54;;;;;;;48.20;24.83;;;;;;;2.33;99.72;100889.80;1654992;85;20974;-74
2022/12/05 07:46:23;;;;;;;48.05;25.55;;;;;;;2.34;99.79;100882.90;1654647;85;21042;-80
2022/12/05 07:48:50;;;;;;;43.23;24.03;;;;;;;2.35;99.76;100891.94;1660503;85;21113;-75
2022/12/05 07:51:18;;;;;;;44.77;24.00;;;;;;;2.36;99.73;100904.48;1662112;85;21062;-74
2022/12/05 07:53:46;;;;;;;48.40;26.20;;;;;;;2.39;99.85;100906.64;1660096;85;21979;-74
2022/12/05 07:56:17;;;;;;;44.93;25.00;;;;;;;2.41;99.79;100902.75;1661289;85;21053;-76
2022/12/05 07:58:44;;;;;;;;;;;;;;;2.40;99.60;100895.86;1664214;84;21077;-75
2022/12/05 08:01:21;;;;;;;47.67;25.60;;;;;;;2.42;99.68;100900.61;1699617;83;20174;-76
2022/12/05 08:03:49;;;;;;;42.73;23.00;;;;;;;2.43;99.69;100908.36;1696500;83;21037;-75
2022/12/05 08:06:20;;;;;;;49.07;24.97;;;;;;;2.44;99.64;100918.31;1696055;83;21121;-77
2022/12/05 08:08:51;;;;;;;48.40;25.07;;;;;;;2.45;99.59;100917.44;1695909;83;21028;-76
2022/12/05 08:11:22;;;;;;;50.67;25.67;;;;;;;2.46;99.44;100911.40;1699879;83;21042;-77
2022/12/05 08:13:50;;;;;;;47.27;26.13;;;;;;;2.48;99.48;100910.98;1697661;83;21046;-76
2022/12/05 08:16:20;;;;;;;47.13;25.47;;;;;;;2.48;99.32;100917.45;1699678;83;21057;-76
2022/12/05 08:18:47;;;;;;;47.00;24.23;;;;;;;2.48;99.31;100924.36;1700031;83;21662;-74
2022/12/05 08:21:18;;;;;;;44.87;25.43;;;;;;;2.49;99.46;100922.19;1696991;83;21033;-76
2022/12/05 08:23:46;;;;;;;44.83;25.10;;;;;;;2.51;99.51;100924.37;1696099;83;21096;-75
2022/12/05 08:26:19;;;;;;;40.47;23.33;;;;;;;2.54;99.40;100915.32;1696290;83;22091;-76
2022/12/05 08:28:48;;;;;;;46.23;24.67;;;;;;;2.53;99.38;100915.75;1698910;83;21037;-75
2022/12/05 08:31:19;;;;;;;47.97;25.70;;;;;;;2.55;99.43;100926.09;1673838;84;21542;-75
2022/12/05 08:33:46;;;;;;;;;;;;;;;2.56;99.41;100928.70;1674340;84;20966;-75
2022/12/05 08:36:15;;;;;;;46.70;25.67;;;;;;;2.57;99.38;100923.95;1670563;84;20648;-74
2022/12/05 08:38:45;;;;;;;46.93;26.17;;;;;;;2.57;99.31;100921.36;1670906;84;21511;-74
2022/12/05 08:41:17;;;;;;;49.98;26.85;;;;;;;2.58;99.37;100919.23;1685140;84;21032;-73
2022/12/05 08:43:44;;;;;;;47.17;25.47;;;;;;;2.59;99.28;100918.80;1683026;84;21144;-72
2022/12/05 08:46:12;;;;;;;48.13;25.83;;;;;;;2.59;99.33;100926.13;1672617;84;22233;-71
2022/12/05 08:48:39;;;;;;;46.73;26.07;;;;;;;2.61;99.24;100937.79;1673666;84;21054;-71
2022/12/05 08:51:10;;;;;;;47.37;25.37;;;;;;;2.61;99.16;100930.89;1672716;84;21106;-73
2022/12/05 08:53:39;;;;;;;46.90;26.00;;;;;;;2.63;99.07;100933.46;1672146;84;22136;-73
2022/12/05 08:56:09;;;;;;;48.40;25.70;;;;;;;2.63;99.04;100930.88;1673737;84;21123;-81
2022/12/05 08:58:36;;;;;;;45.08;25.90;;;;;;;2.63;99.11;100936.05;1673033;84;21101;-75
2022/12/05 09:01:06;;;;;;;43.90;25.63;;;;;;;2.64;99.11;100938.66;1674637;84;21075;-77
2022/12/05 09:03:33;;;;;;;44.60;25.53;;;;;;;2.65;99.05;100938.22;1672990;84;21106;-73
2022/12/05 09:06:16;;;;;;;46.37;26.43;;;;;;;2.66;99.04;100938.64;1673205;84;21066;-74
2022/12/05 09:08:44;;;;;;;46.53;26.47;;;;;;;2.67;99.04;100937.38;1677033;84;21171;-76
2022/12/05 09:11:18;;;;;;;52.70;26.43;;;;;;;2.70;98.86;100927.90;1673501;84;21506;-76
2022/12/05 09:13:47;;;;;;;48.43;27.47;;;;;;;2.71;99.00;100926.59;1674262;84;21049;-77
2022/12/05 09:16:24;;;;;;;48.67;26.73;;;;;;;2.76;99.18;100922.73;1677158;84;21028;-76
2022/12/05 09:18:52;;;;;;;47.57;26.83;;;;;;;2.82;99.25;100917.57;1673542;84;21065;-75
2022/12/05 09:21:23;;;;;;;47.53;26.30;;;;;;;2.86;99.16;100924.06;1677587;84;21432;-74
2022/12/05 09:23:51;;;;;;;43.67;25.57;;;;;;;2.89;99.15;100916.30;1673728;84;21110;-73
2022/12/05 09:26:23;;;;;;;47.93;25.90;;;;;;;2.95;99.22;100920.63;1677433;84;21562;-73
2022/12/05 09:28:51;;;;;;;48.97;27.00;;;;;;;2.99;98.98;100918.91;1674013;84;21105;-73
2022/12/05 09:31:22;;;;;;;42.73;24.57;;;;;;;3.00;98.80;100915.04;1698825;83;21538;-73
2022/12/05 09:33:50;;;;;;;56.85;27.70;;;;;;;3.04;98.85;100905.54;1714830;83;21942;-75
2022/12/05 09:36:27;;;;;;;46.53;26.50;;;;;;;3.08;98.83;100899.52;1694964;83;22152;-74
2022/12/05 09:38:57;;;;;;;45.67;26.03;;;;;;;3.11;98.67;100904.70;1695216;83;20991;-75
2022/12/05 09:44:55;;;;;;;60.87;29.13;;;;;;;3.16;98.76;100891.73;1696380;83;20994;-74
2022/12/05 09:47:58;;;;;;;43.90;25.57;;;;;;;3.18;98.36;100891.31;1673634;84;21106;-74
2022/12/05 09:50:32;;;;;;;43.27;25.37;;;;;;;3.18;98.44;100890.02;1673888;85;21043;-74
2022/12/05 09:53:31;;;;;;;44.20;24.87;;;;;;;3.18;98.36;100884.84;1672989;85;21019;-79
2022/12/05 09:56:11;;;;;;;43.60;25.13;;;;;;;3.19;98.35;100878.78;1673928;84;21074;-73
2022/12/05 09:58:46;;;;;;;46.28;25.52;;;;;;;3.19;98.29;100877.09;1647642;85;21085;-74
2022/12/05 10:01:41;;;;;;;46.00;26.27;;;;;;;3.21;98.27;100890.02;1673483;85;21083;-73
2022/12/05 10:04:47;;;;;;;48.23;25.87;;;;;;;3.21;98.19;100874.48;1649737;85;21545;-73
2022/12/05 10:07:26;;;;;;;41.80;25.17;;;;;;;3.24;98.20;100881.84;1673495;85;21587;-74
2022/12/05 10:10:24;;;;;;;41.33;24.63;;;;;;;3.27;98.27;100875.77;1674807;85;21061;-73
2022/12/05 10:13:21;;;;;;;44.33;25.73;;;;;;;3.31;98.33;100877.08;1672865;85;21541;-73
2022/12/05 10:15:55;;;;;;;46.40;24.87;;;;;;;3.35;98.26;100876.23;1678163;84;21161;-73
2022/12/05 10:18:47;;;;;;;45.50;26.20;;;;;;;3.37;98.15;100872.77;1675733;85;21037;-73
2022/12/05 10:21:22;;;;;;;43.80;24.97;;;;;;;3.40;98.07;100866.28;1678651;85;21468;-74
2022/12/05 10:24:00;;;;;;;43.70;25.47;;;;;;;3.39;97.89;100867.16;1671460;84;21042;-73
2022/12/05 10:26:35;;;;;;;45.53;26.20;;;;;;;3.38;97.78;100868.89;1693721;84;21567;-74
2022/12/05 10:29:20;;;;;;;43.40;25.97;;;;;;;3.41;97.94;100872.78;1696303;83;21234;-74
2022/12/05 10:31:49;;;;;;;44.67;26.27;;;;;;;3.44;97.97;100871.48;1690157;84;20995;-73
2022/12/05 10:34:39;;;;;;;48.15;27.73;;;;;;;3.47;97.99;100871.91;1666839;85;21033;-73
2022/12/05 10:37:23;;;;;;;40.30;24.57;;;;;;;3.50;98.02;100870.61;1676655;84;21541;-77
2022/12/05 10:39:52;;;;;;;43.83;25.43;;;;;;;3.53;97.79;100877.09;1676678;85;21802;-73
2022/12/05 10:42:32;;;;;;;43.97;27.13;;;;;;;3.56;97.81;100874.05;1698681;83;21456;-74
2022/12/05 10:45:08;;;;;;;45.00;25.67;;;;;;;3.59;97.77;100865.41;1698820;83;21029;-78
2022/12/05 10:47:35;;;;;;;43.70;25.47;;;;;;;3.64;97.89;100875.78;1679207;84;21006;-72
2022/12/05 10:50:23;;;;;;;43.13;27.10;;;;;;;3.69;97.93;100872.76;1698707;84;21025;-76
2022/12/05 10:52:53;;;;;;;45.27;25.73;;;;;;;3.73;97.59;100869.28;1681921;84;21479;-73
2022/12/05 10:55:20;;;;;;;45.13;26.07;;;;;;;3.72;97.40;100864.53;1699249;83;21960;-73
2022/12/05 10:57:54;;;;;;;45.50;26.60;;;;;;;3.75;97.41;100866.27;1698656;84;21386;-72
2022/12/05 11:00:25;;;;;;;46.03;26.57;;;;;;;3.74;97.24;100863.22;1672774;84;21989;-72
2022/12/05 11:02:52;;;;;;;43.37;26.90;;;;;;;3.76;97.31;100864.95;1698233;83;21045;-74
2022/12/05 11:05:30;;;;;;;43.23;25.87;;;;;;;3.79;97.31;100862.34;1698842;84;21010;-73
2022/12/05 11:07:58;;;;;;;42.93;26.37;;;;;;;3.83;97.25;100861.92;1679888;84;21600;-73
2022/12/05 11:10:33;;;;;;;49.57;26.57;;;;;;;3.85;97.30;100853.69;1698725;83;21029;-73
2022/12/05 11:13:03;;;;;;;48.40;26.93;;;;;;;3.90;97.27;100858.88;1691507;84;21077;-73
2022/12/05 11:15:33;;;;;;;46.93;27.37;;;;;;;3.90;97.22;100862.77;1692691;84;21511;-72
2022/12/05 11:18:05;;;;;;;41.15;25.20;;;;;;;3.90;97.06;100861.47;1696452;83;21026;-73
2022/12/05 11:20:36;;;;;;;43.93;26.10;;;;;;;3.89;96.99;100861.91;1685934;84;21190;-72
2022/12/05 11:23:24;;;;;;;45.57;27.60;;;;;;;3.89;96.80;100861.05;1675031;84;21602;-73
2022/12/05 11:25:52;;;;;;;46.07;27.87;;;;;;;3.88;96.90;100857.60;1686743;84;21002;-72
2022/12/05 11:28:35;;;;;;;44.73;25.60;;;;;;;3.89;96.78;100861.91;1689169;84;21018;-80
2022/12/05 11:31:17;;;;;;;45.90;26.50;;;;;;;3.89;96.81;100859.75;1665199;84;21543;-74
2022/12/05 11:34:04;;;;;;;47.27;27.30;;;;;;;3.93;97.00;100857.56;1688818;84;21234;-76
2022/12/05 11:36:45;;;;;;;48.20;27.77;;;;;;;3.94;96.86;100860.61;1697995;83;21017;-79
2022/12/05 11:39:13;;;;;;;46.40;27.17;;;;;;;3.95;96.81;100858.00;1681150;83;21010;-77
2022/12/05 11:42:06;;;;;;;47.43;27.27;;;;;;;3.94;96.75;100860.17;1698708;83;21064;-74
2022/12/05 11:44:48;;;;;;;50.40;29.50;;;;;;;3.95;96.76;100856.70;1693594;83;21362;-76
2022/12/05 11:47:38;;;;;;;49.17;26.67;;;;;;;3.97;96.73;100863.19;1691194;84;22190;-74
2022/12/05 11:50:38;;;;;;;46.03;25.77;;;;;;;3.98;96.80;100859.28;1685485;84;21046;-78
2022/12/05 11:53:46;;;;;;;44.47;27.30;;;;;;;4.00;96.86;100859.29;1692177;84;21068;-73
2022/12/05 11:56:39;;;;;;;53.60;30.50;;;;;;;4.01;96.89;100857.11;1687708;83;20992;-78